createdAt,value
2022-11-18T00:01:21.542Z,5.83
2022-11-18T00:03:50.378Z,8.27
2022-11-18T00:06:20.570Z,5.73
2022-11-18T00:08:49.014Z,6.37
2022-11-18T00:11:34.616Z,7.07
2022-11-18T00:14:22.267Z,5.27
2022-11-18T00:16:54.052Z,8.03
2022-11-18T00:19:24.761Z,6.47
2022-11-18T00:21:52.895Z,8.07
2022-11-18T00:24:21.004Z,8.17
2022-11-18T00:26:48.816Z,7.07
2022-11-18T00:29:16.959Z,6.87
2022-11-18T00:31:45.338Z,7.50
2022-11-18T00:34:15.059Z,5.47
2022-11-18T00:36:43.995Z,6.17
2022-11-18T00:39:12.895Z,6.17
2022-11-18T00:41:57.287Z,4.60
2022-11-18T00:44:25.462Z,5.43
2022-11-18T00:46:54.170Z,5.73
2022-11-18T00:49:22.630Z,6.37
2022-11-18T00:51:51.517Z,6.57
2022-11-18T00:54:22.459Z,7.40
2022-11-18T00:56:51.625Z,6.60
2022-11-18T00:59:20.065Z,5.70
2022-11-18T01:01:49.370Z,6.20
2022-11-18T01:04:17.898Z,5.03
2022-11-18T01:06:45.916Z,7.40
2022-11-18T01:09:13.519Z,5.47
2022-11-18T01:11:56.481Z,6.87
2022-11-18T01:16:55.541Z,6.27
2022-11-18T01:19:24.126Z,5.13
2022-11-18T01:21:51.945Z,5.57
2022-11-18T01:24:19.615Z,5.00
2022-11-18T01:26:47.410Z,5.97
2022-11-18T01:29:16.153Z,5.40
2022-11-18T01:32:01.831Z,5.27
2022-11-18T01:34:31.931Z,6.67
2022-11-18T01:36:59.658Z,5.23
2022-11-18T01:39:27.764Z,6.93
2022-11-18T01:41:56.006Z,5.83
2022-11-18T01:44:54.018Z,6.13
2022-11-18T01:47:22.091Z,5.63
2022-11-18T01:49:49.854Z,5.97
2022-11-18T01:52:18.273Z,7.63
2022-11-18T01:54:52.617Z,5.63
2022-11-18T01:57:23.129Z,5.13
2022-11-18T01:59:56.275Z,5.30
2022-11-18T02:02:24.435Z,6.63
2022-11-18T02:04:54.900Z,5.87
2022-11-18T02:07:23.282Z,6.10
2022-11-18T02:09:53.342Z,5.70
2022-11-18T02:12:21.398Z,6.17
2022-11-18T02:14:49.385Z,5.50
2022-11-18T02:17:33.414Z,5.97
2022-11-18T02:20:20.971Z,6.67
2022-11-18T02:23:21.403Z,5.80
2022-11-18T02:26:12.144Z,5.50
2022-11-18T02:29:00.232Z,5.90
2022-11-18T02:31:36.062Z,5.97
2022-11-18T02:34:15.447Z,5.57
2022-11-18T02:36:53.409Z,5.50
2022-11-18T02:39:30.785Z,6.20
2022-11-18T02:42:00.947Z,6.20
2022-11-18T02:44:31.347Z,5.37
2022-11-18T02:47:03.377Z,5.33
2022-11-18T02:49:38.744Z,6.05
2022-11-18T02:52:08.970Z,6.27
2022-11-18T02:54:39.771Z,4.90
2022-11-18T02:57:08.282Z,5.10
2022-11-18T02:59:36.202Z,6.03
2022-11-18T03:02:04.048Z,6.20
2022-11-18T03:04:33.215Z,6.43
2022-11-18T03:07:13.571Z,9.53
2022-11-18T03:09:46.383Z,6.87
2022-11-18T03:12:42.602Z,7.13
2022-11-18T03:15:34.169Z,5.43
2022-11-18T03:18:36.758Z,5.20
2022-11-18T03:21:25.844Z,5.13
2022-11-18T03:24:04.326Z,5.80
2022-11-18T03:26:36.408Z,6.60
2022-11-18T03:29:13.793Z,6.78
2022-11-18T03:31:46.470Z,6.90
2022-11-18T03:37:00.818Z,5.53
2022-11-18T03:39:37.378Z,7.07
2022-11-18T03:42:25.864Z,7.40
2022-11-18T03:44:59.183Z,4.80
2022-11-18T03:47:32.150Z,6.07
2022-11-18T03:50:08.807Z,6.23
2022-11-18T03:52:37.800Z,5.83
2022-11-18T03:55:11.449Z,4.83
2022-11-18T03:57:51.942Z,4.90
2022-11-18T04:00:20.473Z,6.77
2022-11-18T04:02:50.275Z,7.10
2022-11-18T04:05:19.880Z,6.17
2022-11-18T04:08:02.832Z,8.53
2022-11-18T04:13:19.918Z,6.07
2022-11-18T04:15:47.830Z,5.47
2022-11-18T04:18:15.802Z,6.13
2022-11-18T04:20:44.285Z,6.27
2022-11-18T04:23:12.551Z,6.90
2022-11-18T04:25:40.342Z,7.53
2022-11-18T04:28:08.275Z,8.33
2022-11-18T04:30:37.054Z,6.30
2022-11-18T04:33:05.709Z,5.97
2022-11-18T04:35:33.502Z,6.03
2022-11-18T04:38:01.349Z,6.17
2022-11-18T04:40:29.289Z,5.73
2022-11-18T04:42:57.344Z,7.43
2022-11-18T04:45:25.034Z,5.73
2022-11-18T04:47:52.782Z,5.37
2022-11-18T04:50:20.946Z,6.77
2022-11-18T04:52:49.900Z,7.23
2022-11-18T04:55:19.076Z,5.33
2022-11-18T04:57:48.814Z,5.67
2022-11-18T05:00:17.277Z,5.10
2022-11-18T05:02:45.969Z,6.97
2022-11-18T05:05:14.134Z,6.00
2022-11-18T05:07:41.765Z,5.93
2022-11-18T05:10:10.881Z,7.33
2022-11-18T05:12:53.852Z,5.50
2022-11-18T05:17:49.606Z,6.07
2022-11-18T05:20:19.880Z,5.53
2022-11-18T05:22:48.177Z,4.70
2022-11-18T05:25:16.367Z,7.17
2022-11-18T05:27:43.758Z,6.57
2022-11-18T05:30:12.747Z,6.00
2022-11-18T05:32:40.577Z,5.77
2022-11-18T05:35:09.183Z,6.63
2022-11-18T05:37:36.727Z,6.87
2022-11-18T05:40:04.866Z,6.33
2022-11-18T05:42:47.648Z,7.10
2022-11-18T05:45:19.298Z,5.28
2022-11-18T05:48:02.747Z,5.23
2022-11-18T05:50:31.683Z,6.68
2022-11-18T05:52:59.025Z,7.17
2022-11-18T05:55:31.797Z,4.80
2022-11-18T05:57:59.338Z,4.97
2022-11-18T06:00:27.410Z,5.17
2022-11-18T06:02:56.404Z,6.70
2022-11-18T06:05:26.590Z,5.87
2022-11-18T06:07:57.302Z,5.63
2022-11-18T06:10:31.607Z,6.17
2022-11-18T06:13:02.734Z,6.13
2022-11-18T06:15:46.908Z,4.90
2022-11-18T06:18:27.454Z,5.07
2022-11-18T06:21:00.434Z,6.07
2022-11-18T06:23:32.432Z,6.17
2022-11-18T06:26:02.305Z,5.53
2022-11-18T06:28:32.703Z,6.43
2022-11-18T06:31:01.665Z,8.40
2022-11-18T06:33:29.448Z,5.40
2022-11-18T06:35:58.049Z,6.97
2022-11-18T06:38:26.002Z,5.83
2022-11-18T06:40:53.830Z,11.43
2022-11-18T06:43:36.932Z,7.50
2022-11-18T06:46:22.299Z,5.23
2022-11-18T06:48:49.971Z,6.33
2022-11-18T06:51:18.021Z,7.40
2022-11-18T06:53:45.839Z,5.33
2022-11-18T06:56:15.700Z,6.27
2022-11-18T06:58:43.502Z,6.80
2022-11-18T07:01:15.835Z,4.73
2022-11-18T07:03:45.280Z,4.80
2022-11-18T07:06:15.223Z,6.10
2022-11-18T07:08:43.730Z,5.60
2022-11-18T07:11:14.125Z,5.63
2022-11-18T07:13:43.796Z,5.23
2022-11-18T07:16:16.911Z,5.20
2022-11-18T07:18:45.750Z,7.27
2022-11-18T07:21:17.744Z,6.47
2022-11-18T07:23:46.152Z,6.13
2022-11-18T07:26:14.040Z,5.05
2022-11-18T07:28:42.076Z,8.23
2022-11-18T07:31:13.756Z,5.60
2022-11-18T07:33:45.461Z,6.73
2022-11-18T07:36:15.888Z,5.60
2022-11-18T07:38:44.802Z,6.10
2022-11-18T07:41:17.747Z,5.70
2022-11-18T07:43:46.389Z,7.03
2022-11-18T07:46:25.149Z,4.90
2022-11-18T07:48:55.015Z,5.75
2022-11-18T07:51:25.713Z,5.18
2022-11-18T07:53:53.754Z,5.70
2022-11-18T07:56:21.922Z,6.93
2022-11-18T07:58:54.627Z,6.85
2022-11-18T08:01:24.632Z,5.65
2022-11-18T08:03:52.938Z,5.68
2022-11-18T08:06:23.852Z,6.75
2022-11-18T08:08:51.767Z,7.47
2022-11-18T08:11:22.705Z,8.18
2022-11-18T08:13:52.039Z,5.13
2022-11-18T08:16:23.343Z,5.55
2022-11-18T08:18:54.983Z,8.47
2022-11-18T08:21:25.168Z,8.25
2022-11-18T08:23:58.229Z,6.05
2022-11-18T08:26:27.938Z,8.30
2022-11-18T08:28:58.485Z,5.68
2022-11-18T08:31:28.817Z,6.13
2022-11-18T08:33:58.296Z,6.00
2022-11-18T08:36:28.740Z,7.45
2022-11-18T08:38:58.695Z,6.03
2022-11-18T08:41:36.755Z,4.97
2022-11-18T08:44:05.962Z,5.80
2022-11-18T08:46:33.973Z,5.38
2022-11-18T08:49:02.947Z,6.20
2022-11-18T08:51:31.359Z,6.10
2022-11-18T08:53:59.621Z,7.80
2022-11-18T08:56:27.775Z,6.53
2022-11-18T08:58:58.117Z,7.20
2022-11-18T09:01:26.160Z,6.22
2022-11-18T09:03:54.073Z,5.53
2022-11-18T09:06:25.236Z,6.55
2022-11-18T09:08:54.095Z,6.43
2022-11-18T09:11:24.746Z,7.03
2022-11-18T09:16:46.357Z,4.82
2022-11-18T09:19:46.912Z,5.78
2022-11-18T09:22:05.430Z,6.80
2022-11-18T09:24:33.798Z,6.10
2022-11-18T09:27:05.873Z,6.32
2022-11-18T09:29:35.143Z,7.30
2022-11-18T09:32:03.136Z,5.78
2022-11-18T09:34:30.962Z,5.32
2022-11-18T09:36:59.067Z,6.40
2022-11-18T09:39:27.078Z,8.73
2022-11-18T09:42:25.316Z,6.25
2022-11-18T09:45:28.962Z,8.63
2022-11-18T09:48:00.231Z,6.85
2022-11-18T09:53:26.564Z,7.25
2022-11-18T09:55:56.078Z,5.88
2022-11-18T09:58:35.440Z,8.55
2022-11-18T10:01:10.045Z,9.23
2022-11-18T10:03:39.243Z,6.07
2022-11-18T10:06:23.923Z,6.43
2022-11-18T10:09:23.201Z,4.38
2022-11-18T10:12:13.049Z,6.10
2022-11-18T10:15:17.309Z,5.70
2022-11-18T10:18:31.994Z,5.37
2022-11-18T10:21:32.994Z,6.85
2022-11-18T10:24:08.077Z,5.03
2022-11-18T10:26:39.281Z,9.02
2022-11-18T10:29:10.242Z,6.03
2022-11-18T10:31:39.897Z,7.43
2022-11-18T10:34:07.791Z,6.30
2022-11-18T10:36:37.544Z,5.57
2022-11-18T10:39:17.490Z,5.88
2022-11-18T10:41:52.428Z,5.43
2022-11-18T10:44:31.482Z,5.25
2022-11-18T10:47:24.012Z,6.32
2022-11-18T10:49:52.878Z,5.63
2022-11-18T10:52:22.468Z,7.35
2022-11-18T10:55:09.489Z,6.10
2022-11-18T10:57:43.934Z,5.45
2022-11-18T11:00:42.944Z,7.82
2022-11-18T11:03:29.693Z,5.25
2022-11-18T11:06:32.914Z,6.28
2022-11-18T11:09:08.047Z,6.05
2022-11-18T11:11:40.266Z,5.70
2022-11-18T11:14:17.587Z,4.93
2022-11-18T11:16:59.570Z,6.60
2022-11-18T11:19:45.374Z,6.72
2022-11-18T11:22:14.667Z,6.95
2022-11-18T11:24:43.259Z,6.63
2022-11-18T11:30:23.319Z,5.32
2022-11-18T11:33:15.507Z,4.85
2022-11-18T11:35:55.305Z,6.97
2022-11-18T11:38:48.305Z,6.38
2022-11-18T11:41:25.245Z,8.10
2022-11-18T11:44:20.849Z,7.20
2022-11-18T11:47:35.215Z,6.82
2022-11-18T11:51:03.076Z,8.00
2022-11-18T11:53:56.266Z,5.70
2022-11-18T11:56:45.851Z,7.53
2022-11-18T11:59:37.322Z,7.70
2022-11-18T12:02:37.420Z,6.13
2022-11-18T12:05:20.956Z,6.38
2022-11-18T12:07:57.394Z,5.53
2022-11-18T12:10:45.907Z,6.32
2022-11-18T12:13:27.953Z,8.60
2022-11-18T12:16:30.798Z,6.55
2022-11-18T12:19:04.110Z,6.55
2022-11-18T12:21:56.058Z,5.70
2022-11-18T12:24:36.642Z,6.72
2022-11-18T12:27:27.969Z,7.57
2022-11-18T12:30:00.678Z,6.97
2022-11-18T12:32:47.036Z,6.50
2022-11-18T12:35:27.438Z,6.93
2022-11-18T12:38:01.041Z,7.13
2022-11-18T12:40:51.864Z,8.65
2022-11-18T12:44:01.320Z,11.07
2022-11-18T12:46:50.586Z,6.28
2022-11-18T12:49:53.542Z,7.93
2022-11-18T12:52:46.353Z,10.10
2022-11-18T12:55:19.623Z,6.90
2022-11-18T12:57:48.591Z,7.55
2022-11-18T13:00:32.908Z,8.38
2022-11-18T13:03:02.646Z,8.27
2022-11-18T13:05:34.939Z,7.15
2022-11-18T13:08:15.049Z,6.93
2022-11-18T13:10:56.201Z,8.57
2022-11-18T13:13:30.568Z,6.40
2022-11-18T13:16:20.761Z,5.15
2022-11-18T13:18:52.264Z,5.82
2022-11-18T13:21:40.158Z,7.05
2022-11-18T13:24:12.453Z,6.35
2022-11-18T13:26:45.289Z,10.13
2022-11-18T13:29:39.952Z,6.93
2022-11-18T13:32:25.188Z,7.38
2022-11-18T13:35:19.334Z,8.02
2022-11-18T13:37:55.622Z,6.93
2022-11-18T13:40:28.702Z,7.03
2022-11-18T13:42:58.794Z,7.90
2022-11-18T13:45:28.978Z,11.57
2022-11-18T13:48:07.709Z,6.53
2022-11-18T13:50:43.892Z,7.63
2022-11-18T13:53:38.241Z,8.73
2022-11-18T13:56:21.106Z,7.72
2022-11-18T13:59:16.994Z,6.65
2022-11-18T14:01:54.329Z,10.13
2022-11-18T14:04:32.085Z,10.52
2022-11-18T14:07:20.195Z,8.38
2022-11-18T14:10:02.619Z,9.15
2022-11-18T14:12:36.518Z,6.65
2022-11-18T14:15:40.536Z,10.07
2022-11-18T14:18:31.963Z,8.13
2022-11-18T14:21:02.634Z,9.15
2022-11-18T14:23:36.123Z,6.18
2022-11-18T14:26:06.925Z,8.32
2022-11-18T14:28:39.436Z,10.57
2022-11-18T14:34:22.529Z,7.80
2022-11-18T14:36:51.898Z,8.57
2022-11-18T14:39:27.414Z,8.43
2022-11-18T14:41:58.004Z,8.20
2022-11-18T14:44:29.120Z,8.38
2022-11-18T14:47:03.787Z,8.45
2022-11-18T14:49:32.995Z,7.28
2022-11-18T14:52:03.414Z,11.20
2022-11-18T14:54:33.497Z,7.70
2022-11-18T14:57:05.996Z,9.55
2022-11-18T14:59:36.089Z,8.93
2022-11-18T15:02:05.982Z,6.63
2022-11-18T15:04:35.570Z,7.80
2022-11-18T15:07:08.542Z,8.00
2022-11-18T15:09:37.923Z,6.45
2022-11-18T15:12:06.336Z,6.60
2022-11-18T15:14:39.837Z,9.57
2022-11-18T15:17:20.543Z,9.57
2022-11-18T15:19:52.520Z,6.28
2022-11-18T15:22:23.872Z,9.48
2022-11-18T15:24:56.186Z,8.27
2022-11-18T15:30:01.991Z,5.73
2022-11-18T15:32:39.361Z,7.38
2022-11-18T15:35:18.595Z,6.78
2022-11-18T15:37:50.680Z,8.23
2022-11-18T15:40:22.264Z,7.37
2022-11-18T15:42:52.360Z,7.43
2022-11-18T15:45:25.853Z,7.20
2022-11-18T15:50:31.087Z,6.57
2022-11-18T15:53:02.237Z,7.35
2022-11-18T15:55:37.803Z,8.50
2022-11-18T15:58:08.464Z,7.63
2022-11-18T16:00:39.516Z,7.97
2022-11-18T16:03:11.635Z,8.93
2022-11-18T16:05:44.848Z,8.20
2022-11-18T16:08:26.098Z,10.10
2022-11-18T16:11:18.616Z,5.77
2022-11-18T16:13:49.112Z,7.60
2022-11-18T16:16:28.474Z,9.23
2022-11-18T16:19:00.650Z,6.83
2022-11-18T16:21:32.206Z,7.32
2022-11-18T16:24:04.091Z,6.72
2022-11-18T16:26:33.864Z,7.18
2022-11-18T16:29:05.232Z,9.05
2022-11-18T16:31:45.295Z,7.32
2022-11-18T16:34:33.769Z,8.65
2022-11-18T16:37:04.190Z,7.47
2022-11-18T16:39:35.134Z,8.70
2022-11-18T16:42:10.832Z,7.60
2022-11-18T16:44:45.211Z,7.15
2022-11-18T16:47:18.196Z,11.30
2022-11-18T16:49:48.591Z,7.93
2022-11-18T16:52:17.991Z,5.90
2022-11-18T16:54:47.773Z,8.57
2022-11-18T16:57:17.942Z,7.93
2022-11-18T16:59:49.117Z,6.95
2022-11-18T17:02:21.446Z,7.43
2022-11-18T17:07:22.057Z,10.07
2022-11-18T17:09:52.550Z,6.10
2022-11-18T17:12:24.684Z,6.38
2022-11-18T17:14:55.334Z,6.45
2022-11-18T17:17:26.967Z,6.60
2022-11-18T17:19:57.367Z,6.53
2022-11-18T17:22:27.748Z,9.65
2022-11-18T17:25:03.783Z,6.63
2022-11-18T17:27:35.627Z,8.50
2022-11-18T17:30:10.713Z,8.38
2022-11-18T17:32:41.844Z,7.82
2022-11-18T17:35:12.656Z,9.48
2022-11-18T17:46:38.231Z,8.40
2022-11-18T17:49:16.896Z,7.88
2022-11-18T17:51:48.981Z,9.10
2022-11-18T17:54:20.817Z,9.93
2022-11-18T17:56:53.755Z,9.48
2022-11-18T17:59:27.360Z,9.27
2022-11-18T18:01:59.796Z,8.95
2022-11-18T18:04:30.933Z,8.85
2022-11-18T18:07:00.847Z,6.93
2022-11-18T18:09:31.604Z,8.48
2022-11-18T18:12:23.093Z,7.43
2022-11-18T18:14:55.446Z,10.15
2022-11-18T18:17:28.934Z,8.32
2022-11-18T18:20:01.302Z,6.93
2022-11-18T18:22:33.626Z,8.52
2022-11-18T18:25:05.711Z,8.67
2022-11-18T18:27:37.720Z,7.72
2022-11-18T18:30:11.383Z,8.32
2022-11-18T18:32:41.579Z,11.52
2022-11-18T18:35:12.899Z,10.38
2022-11-18T18:37:43.137Z,9.98
2022-11-18T18:40:15.045Z,9.32
2022-11-18T18:42:45.130Z,10.63
2022-11-18T18:45:30.223Z,9.80
2022-11-18T18:48:04.102Z,9.02
2022-11-18T18:50:37.809Z,9.30
2022-11-18T18:53:07.456Z,9.23
2022-11-18T18:55:41.947Z,9.45
2022-11-18T18:58:13.290Z,9.00
2022-11-18T19:00:43.372Z,10.55
2022-11-18T19:03:11.450Z,8.30
2022-11-18T19:06:12.736Z,8.95
2022-11-18T19:08:30.781Z,10.23
2022-11-18T19:10:59.343Z,9.13
2022-11-18T19:13:29.503Z,10.40
2022-11-18T19:15:58.284Z,9.98
2022-11-18T19:18:27.157Z,8.13
2022-11-18T19:20:55.613Z,10.23
2022-11-18T19:23:27.128Z,9.07
2022-11-18T19:26:03.087Z,9.48
2022-11-18T19:28:31.975Z,9.20
2022-11-18T19:31:05.045Z,10.68
2022-11-18T19:33:33.565Z,9.93
2022-11-18T19:36:04.920Z,9.23
2022-11-18T19:38:36.251Z,9.82
2022-11-18T19:41:08.200Z,11.55
2022-11-18T19:43:36.787Z,7.95
2022-11-18T19:46:06.902Z,10.60
2022-11-18T19:48:36.359Z,11.13
2022-11-18T19:51:10.533Z,8.77
2022-11-18T19:53:40.693Z,10.18
2022-11-18T19:56:16.573Z,10.33
2022-11-18T19:58:51.095Z,9.82
2022-11-18T20:01:24.930Z,10.18
2022-11-18T20:03:56.928Z,9.05
2022-11-18T20:06:27.484Z,9.95
2022-11-18T20:08:57.592Z,9.53
2022-11-18T20:11:26.283Z,7.70
2022-11-18T20:13:55.020Z,10.50
2022-11-18T20:16:26.695Z,10.25
2022-11-18T20:18:57.538Z,8.05
2022-11-18T20:21:31.013Z,9.65
2022-11-18T20:24:02.610Z,10.30
2022-11-18T20:26:35.749Z,11.95
2022-11-18T20:29:05.477Z,10.90
2022-11-18T20:31:34.297Z,9.87
2022-11-18T20:34:04.427Z,10.25
2022-11-18T20:36:36.711Z,10.00
2022-11-18T20:39:09.527Z,9.98
2022-11-18T20:44:09.347Z,9.48
2022-11-18T20:46:37.651Z,9.05
2022-11-18T20:49:05.922Z,9.80
2022-11-18T20:51:33.345Z,9.48
2022-11-18T20:54:02.359Z,9.32
2022-11-18T20:56:30.771Z,11.43
2022-11-18T20:58:58.657Z,7.38
2022-11-18T21:01:29.593Z,7.50
2022-11-18T21:04:02.162Z,12.38
2022-11-18T21:06:31.895Z,8.45
2022-11-18T21:09:02.704Z,9.80
2022-11-18T21:11:34.915Z,8.93
2022-11-18T21:14:23.825Z,8.85
2022-11-18T21:16:56.096Z,9.90
2022-11-18T21:19:27.075Z,11.45
2022-11-18T21:21:56.560Z,8.50
2022-11-18T21:24:29.826Z,7.47
2022-11-18T21:26:59.942Z,8.68
2022-11-18T21:29:29.675Z,10.13
2022-11-18T21:32:01.611Z,9.98
2022-11-18T21:34:29.680Z,9.43
2022-11-18T21:36:58.363Z,8.70
2022-11-18T21:39:27.737Z,9.43
2022-11-18T21:41:57.377Z,9.37
2022-11-18T21:44:28.694Z,10.95
2022-11-18T21:46:57.650Z,12.20
2022-11-18T21:49:25.761Z,11.60
2022-11-18T21:51:53.908Z,11.43
2022-11-18T21:54:22.317Z,10.77
2022-11-18T21:56:50.112Z,8.17
2022-11-18T21:59:18.293Z,11.20
2022-11-18T22:01:47.193Z,10.90
2022-11-18T22:04:34.794Z,10.80
2022-11-18T22:07:03.005Z,10.65
2022-11-18T22:09:36.034Z,10.63
2022-11-18T22:12:05.237Z,12.60
2022-11-18T22:14:33.142Z,10.60
2022-11-18T22:17:01.236Z,10.97
2022-11-18T22:19:29.990Z,8.98
2022-11-18T22:21:59.301Z,12.23
2022-11-18T22:24:27.164Z,12.98
2022-11-18T22:26:55.311Z,12.23
2022-11-18T22:29:25.128Z,10.75
2022-11-18T22:31:53.733Z,9.30
2022-11-18T22:34:21.691Z,12.55
2022-11-18T22:36:49.753Z,12.50
2022-11-18T22:39:18.590Z,10.55
2022-11-18T22:42:02.126Z,8.10
2022-11-18T22:44:36.244Z,9.38
2022-11-18T22:47:04.266Z,8.50
2022-11-18T22:49:32.098Z,9.07
2022-11-18T22:52:00.882Z,8.15
2022-11-18T22:54:44.773Z,11.18
2022-11-18T22:57:12.633Z,8.07
2022-11-18T22:59:41.168Z,8.25
2022-11-18T23:02:10.657Z,6.85
2022-11-18T23:04:38.540Z,7.60
2022-11-18T23:07:06.511Z,9.00
2022-11-18T23:09:36.992Z,8.02
2022-11-18T23:12:20.613Z,9.35
2022-11-18T23:14:48.565Z,7.45
2022-11-18T23:17:16.415Z,10.60
2022-11-18T23:19:44.325Z,7.88
2022-11-18T23:22:13.093Z,7.97
2022-11-18T23:24:41.081Z,8.93
2022-11-18T23:27:09.173Z,9.02
2022-11-18T23:29:36.966Z,7.72
2022-11-18T23:32:05.244Z,11.98
2022-11-18T23:34:33.421Z,9.25
2022-11-18T23:37:01.698Z,8.93
2022-11-18T23:39:29.550Z,8.05
2022-11-18T23:41:57.179Z,9.60
2022-11-18T23:44:45.070Z,7.95
2022-11-18T23:47:13.315Z,10.55
2022-11-18T23:49:41.504Z,11.82
2022-11-18T23:52:09.717Z,9.93
2022-11-18T23:54:39.072Z,9.85
2022-11-18T23:57:08.135Z,10.98
2022-11-18T23:59:36.184Z,12.30
